KL35 Airport Information

Runway Information
Runway 08 Length 5850 ft width 75 ft
Elevation 6750 ft Threshold 370 ft Heading 90
Runway 26 Length 5850 ft Width 75 ft
Elevation 6751 ft Threshold 600 ft Heading 270
Airport Frequencies
Type AWOS Name AWOS 3 Frequency 135.925 MHZ
Type CNTR Name LOS ANGELE Frequency 126.35 MHZ
Type UNIC Name CTAF/UNICO Frequency 122.725 MHZ
Airport Navaids
Airport Weather Information & NOTAM
ADDS - METARS form results

(1237 UTC 21 September 2018)
Data provider http://aviationweather.gov/metar/data/
 
METAR text: KL35 211215Z AUTO 00000KT 10SM CLR 03/01 A3026 RMK AO2
Conditions at: KL35 (BIG BEAR CITY , CA, US) observed 1215 UTC 21 September 2018
Temperature: 3.0°C (37°F)
Dewpoint: 1.0°C (34°F) [RH = 87%]
Pressure (altimeter): 30.26 inches Hg (1024.8 mb)
Winds: calm
Visibility: 10 or more miles (16+ km)
Ceiling: at least 12,000 feet AGL
Clouds: sky clear below 12,000 feet AGL
Weather: automated observation with no human augmentation;
there may or may not be significant weather present at this time

METAR text: KL35 211155Z AUTO 00000KT 10SM CLR 03/01 A3026 RMK AO2
Conditions at: KL35 (BIG BEAR CITY , CA, US) observed 1155 UTC 21 September 2018
Temperature: 3.0°C (37°F)
Dewpoint: 1.0°C (34°F) [RH = 87%]
Pressure (altimeter): 30.26 inches Hg (1024.8 mb)
Winds: calm
Visibility: 10 or more miles (16+ km)
Ceiling: at least 12,000 feet AGL
Clouds: sky clear below 12,000 feet AGL
Weather: automated observation with no human augmentation;
there may or may not be significant weather present at this time